Time;durP1;ratioP1;P1;durP2;ratioP2;P2;SDS_P1;SDS_P2;PMS_P1;PMS_P2;Temp;Humidity;BMP_temperature;BMP_pressure;BME280_temperature;BME280_humidity;BME280_pressure;Samples;Min_cycle;Max_cycle;Signal;HPM_P1;HPM_P2
2023/08/25 00:01:24;;;;;;;2.45;1.88;;;28.10;54.70;;;;;;5118435;28;20423;-63
2023/08/25 00:03:49;;;;;;;3.10;2.00;;;28.20;54.70;;;;;;5119163;28;20025;-63
2023/08/25 00:06:15;;;;;;;2.55;1.80;;;28.10;54.60;;;;;;5118926;28;20016;-63
2023/08/25 00:08:41;;;;;;;3.10;1.90;;;28.10;54.70;;;;;;5120548;28;20046;-62
2023/08/25 00:11:07;;;;;;;2.85;1.90;;;28.10;54.70;;;;;;5118607;28;20034;-62
2023/08/25 00:13:35;;;;;;;2.28;1.75;;;28.10;55.20;;;;;;5119878;28;20102;-63
2023/08/25 00:16:01;;;;;;;2.53;1.83;;;28.10;54.60;;;;;;5118358;28;20443;-63
2023/08/25 00:18:27;;;;;;;2.35;1.67;;;28.10;54.70;;;;;;5117270;28;20479;-62
2023/08/25 00:20:52;;;;;;;1.98;1.52;;;28.10;54.70;;;;;;5120145;28;20030;-63
2023/08/25 00:23:18;;;;;;;2.30;1.60;;;28.10;54.60;;;;;;5118167;28;20028;-63
2023/08/25 00:25:44;;;;;;;2.40;1.77;;;28.10;54.60;;;;;;5122012;28;20083;-61
2023/08/25 00:28:10;;;;;;;2.10;1.67;;;28.10;54.60;;;;;;5118277;28;20395;-62
2023/08/25 00:30:36;;;;;;;3.30;2.00;;;28.10;54.60;;;;;;5119068;28;20471;-61
2023/08/25 00:33:02;;;;;;;2.85;1.80;;;28.10;54.60;;;;;;5117438;28;20087;-61
2023/08/25 00:35:27;;;;;;;2.50;1.80;;;28.10;54.70;;;;;;5118179;27;20333;-64
2023/08/25 00:37:53;;;;;;;3.15;1.88;;;28.10;54.70;;;;;;5122942;27;20437;-65
2023/08/25 00:40:18;;;;;;;2.83;1.80;;;28.10;54.70;;;;;;5123521;27;20027;-65
2023/08/25 00:42:44;;;;;;;2.40;1.65;;;28.10;54.70;;;;;;5122111;27;20641;-65
2023/08/25 00:45:10;;;;;;;2.40;1.63;;;28.10;54.70;;;;;;5121889;27;20035;-63
2023/08/25 00:47:36;;;;;;;2.30;1.70;;;28.10;54.70;;;;;;5120757;27;20050;-63
2023/08/25 00:50:02;;;;;;;2.55;1.80;;;28.10;54.70;;;;;;5120678;27;20424;-62
2023/08/25 00:52:28;;;;;;;2.13;1.60;;;28.10;54.70;;;;;;5123743;27;20026;-64
2023/08/25 00:54:55;;;;;;;2.63;1.90;;;28.10;54.70;;;;;;5121790;27;20492;-63
2023/08/25 00:57:22;;;;;;;2.47;1.60;;;28.10;54.70;;;;;;5122707;27;20019;-62
2023/08/25 00:59:48;;;;;;;2.50;1.70;;;28.10;54.70;;;;;;5122477;27;20031;-63
2023/08/25 01:02:15;;;;;;;2.58;1.90;;;28.10;54.70;;;;;;5119390;27;20023;-63
2023/08/25 01:04:41;;;;;;;2.22;1.50;;;28.10;54.70;;;;;;5104532;27;20031;-62
2023/08/25 01:07:06;;;;;;;2.58;1.80;;;28.10;54.70;;;;;;5119347;27;20075;-63
2023/08/25 01:09:34;;;;;;;2.40;1.70;;;28.10;54.70;;;;;;5113666;27;20031;-63
2023/08/25 01:12:08;;;;;;;2.60;1.75;;;28.10;54.70;;;;;;5122134;27;20152;-62
2023/08/25 01:14:48;;;;;;;2.50;1.75;;;28.10;54.70;;;;;;5120782;27;20479;-63
2023/08/25 01:17:28;;;;;;;2.58;1.88;;;28.10;54.70;;;;;;5119882;27;20055;-62
2023/08/25 01:19:56;;;;;;;2.45;1.80;;;28.10;54.70;;;;;;5120920;27;20011;-63
2023/08/25 01:22:43;;;;;;;2.65;1.80;;;28.10;54.70;;;;;;5118703;27;20024;-63
2023/08/25 01:25:31;;;;;;;2.50;1.70;;;28.10;54.70;;;;;;5118259;27;20035;-64
2023/08/25 01:27:59;;;;;;;2.53;1.67;;;28.10;54.70;;;;;;5121724;27;20028;-63
2023/08/25 01:30:30;;;;;;;2.05;1.50;;;28.10;54.70;;;;;;5120518;27;20062;-63
2023/08/25 01:32:57;;;;;;;2.10;1.60;;;28.00;54.70;;;;;;5120015;27;20027;-62
2023/08/25 01:35:29;;;;;;;2.25;1.70;;;28.10;54.70;;;;;;5121239;27;20143;-62
2023/08/25 01:38:06;;;;;;;1.92;1.60;;;28.10;54.70;;;;;;5120960;27;20138;-62
2023/08/25 01:40:42;;;;;;;2.15;1.60;;;28.10;54.70;;;;;;5120564;27;20012;-62
2023/08/25 01:43:13;;;;;;;2.20;1.70;;;28.10;54.70;;;;;;5122156;27;20435;-60
2023/08/25 01:45:40;;;;;;;2.58;1.60;;;28.00;54.60;;;;;;5120710;27;20023;-65
2023/08/25 01:48:08;;;;;;;2.35;1.55;;;28.00;54.60;;;;;;5120224;27;20038;-65
2023/08/25 01:50:36;;;;;;;2.58;1.70;;;28.10;54.70;;;;;;5119796;27;20387;-65
2023/08/25 01:53:03;;;;;;;2.63;1.70;;;28.10;54.70;;;;;;5123765;27;20019;-65
2023/08/25 01:55:28;;;;;;;2.10;1.60;;;28.10;54.70;;;;;;5120857;27;20368;-67
2023/08/25 01:57:54;;;;;;;2.00;1.40;;;28.10;54.70;;;;;;5119738;27;20084;-67
2023/08/25 02:00:20;;;;;;;2.50;1.85;;;28.10;54.70;;;;;;5120154;27;20027;-68
2023/08/25 02:02:45;;;;;;;2.17;1.60;;;28.00;54.60;;;;;;5120922;27;20063;-67
2023/08/25 02:05:11;;;;;;;2.00;1.50;;;28.10;54.70;;;;;;5118786;27;20033;-67
2023/08/25 02:07:37;;;;;;;2.28;1.50;;;28.00;54.60;;;;;;5120314;27;20038;-68
2023/08/25 02:10:03;;;;;;;2.28;1.52;;;28.00;54.60;;;;;;5118979;27;20054;-67
2023/08/25 02:12:29;;;;;;;2.15;1.40;;;28.00;54.60;;;;;;5119728;27;20419;-67
2023/08/25 02:14:54;;;;;;;2.05;1.50;;;28.00;54.60;;;;;;5118841;27;20072;-65
2023/08/25 02:17:20;;;;;;;1.90;1.42;;;28.00;54.70;;;;;;5118053;27;20075;-65
2023/08/25 02:19:45;;;;;;;2.58;1.70;;;28.00;54.60;;;;;;5118700;27;20027;-65
2023/08/25 02:22:11;;;;;;;2.28;1.50;;;28.00;54.70;;;;;;5120396;27;20494;-65
2023/08/25 02:24:37;;;;;;;2.78;1.45;;;28.00;54.60;;;;;;5121123;27;20168;-65
2023/08/25 02:27:02;;;;;;;1.88;1.50;;;28.00;54.70;;;;;;5120065;27;20464;-65
2023/08/25 02:29:28;;;;;;;2.10;1.50;;;28.00;54.60;;;;;;5119480;27;20036;-65
2023/08/25 02:31:54;;;;;;;2.10;1.40;;;28.00;54.60;;;;;;5118924;27;20055;-65
2023/08/25 02:34:20;;;;;;;2.72;1.50;;;28.00;54.60;;;;;;5119750;27;20154;-64
2023/08/25 02:36:45;;;;;;;1.83;1.30;;;28.00;54.60;;;;;;5118841;27;20183;-64
2023/08/25 02:39:12;;;;;;;2.30;1.35;;;28.00;54.70;;;;;;5119635;27;20020;-65
2023/08/25 02:41:37;;;;;;;2.00;1.50;;;28.00;54.70;;;;;;5121250;27;20019;-65
2023/08/25 02:44:03;;;;;;;2.20;1.50;;;28.00;54.70;;;;;;5120206;27;20053;-65
2023/08/25 02:46:28;;;;;;;1.92;1.33;;;28.00;54.70;;;;;;5119636;27;20036;-63
2023/08/25 02:48:54;;;;;;;1.90;1.60;;;28.00;54.70;;;;;;5118197;27;20046;-61
2023/08/25 02:51:20;;;;;;;2.28;1.50;;;28.00;54.70;;;;;;5120337;27;20504;-62
2023/08/25 02:53:45;;;;;;;1.67;1.30;;;28.00;54.70;;;;;;5120207;27;20030;-63
2023/08/25 02:56:11;;;;;;;2.10;1.50;;;28.00;54.70;;;;;;5119344;27;20038;-66
2023/08/25 02:58:36;;;;;;;1.92;1.42;;;28.00;54.70;;;;;;5100076;27;20023;-68
2023/08/25 03:01:13;;;;;;;2.10;1.42;;;28.00;54.70;;;;;;5119240;27;20023;-67
2023/08/25 03:03:38;;;;;;;2.50;1.70;;;28.00;54.70;;;;;;5119149;27;20024;-67
2023/08/25 03:06:04;;;;;;;2.10;1.40;;;28.00;54.70;;;;;;5122030;27;20027;-67
2023/08/25 03:08:30;;;;;;;2.22;1.48;;;28.00;54.70;;;;;;5119328;27;20031;-68
2023/08/25 03:10:55;;;;;;;1.83;1.30;;;28.00;54.70;;;;;;5121522;27;20102;-67
2023/08/25 03:13:21;;;;;;;1.60;1.27;;;28.00;54.70;;;;;;5119915;27;20024;-68
2023/08/25 03:15:48;;;;;;;1.67;1.40;;;28.00;54.70;;;;;;5120871;27;20031;-67
2023/08/25 03:18:16;;;;;;;1.88;1.40;;;28.00;54.60;;;;;;5119188;27;20348;-68
2023/08/25 03:20:42;;;;;;;2.17;1.50;;;28.00;54.70;;;;;;5120107;27;20144;-67
2023/08/25 03:23:08;;;;;;;2.35;1.33;;;28.00;54.70;;;;;;5122011;27;20194;-67
2023/08/25 03:25:37;;;;;;;1.75;1.20;;;28.00;54.70;;;;;;5120516;27;20023;-65
2023/08/25 03:28:03;;;;;;;2.28;1.33;;;28.00;54.70;;;;;;5120534;27;20031;-64
2023/08/25 03:30:29;;;;;;;2.03;1.38;;;28.00;54.70;;;;;;5122320;27;20090;-65
2023/08/25 03:33:00;;;;;;;2.10;1.30;;;28.00;54.70;;;;;;5118287;27;20062;-65
2023/08/25 03:35:25;;;;;;;2.20;1.40;;;28.00;54.70;;;;;;5118035;28;20026;-65
2023/08/25 03:37:51;;;;;;;2.25;1.30;;;27.90;54.60;;;;;;5121312;28;20019;-65
2023/08/25 03:40:19;;;;;;;2.35;1.35;;;28.00;54.70;;;;;;5120072;28;20114;-65
2023/08/25 03:42:44;;;;;;;1.83;1.20;;;28.00;54.70;;;;;;5120112;28;20019;-65
2023/08/25 03:45:10;;;;;;;1.80;1.30;;;28.00;54.70;;;;;;5119569;28;20037;-63
2023/08/25 03:47:36;;;;;;;1.63;1.27;;;28.00;55.30;;;;;;5118847;28;20434;-63
2023/08/25 03:50:02;;;;;;;2.13;1.40;;;28.00;54.70;;;;;;5118356;28;20527;-63
2023/08/25 03:52:28;;;;;;;1.95;1.30;;;27.90;54.60;;;;;;5117356;28;20028;-63
2023/08/25 03:54:56;;;;;;;2.28;1.40;;;27.90;54.60;;;;;;5118116;28;20096;-61
2023/08/25 03:57:22;;;;;;;2.03;1.35;;;28.00;54.70;;;;;;5117639;28;20198;-62
2023/08/25 03:59:48;;;;;;;2.05;1.38;;;28.00;54.70;;;;;;5119172;28;20106;-64
2023/08/25 04:02:13;;;;;;;2.00;1.35;;;27.90;54.70;;;;;;5119962;28;20482;-62
2023/08/25 04:04:39;;;;;;;1.23;1.10;;;27.90;54.60;;;;;;5118781;28;20038;-63
2023/08/25 04:07:04;;;;;;;1.83;1.30;;;27.90;54.60;;;;;;5119799;28;20031;-65
2023/08/25 04:09:30;;;;;;;1.38;1.00;;;27.90;54.60;;;;;;5118185;28;20090;-65
2023/08/25 04:11:56;;;;;;;1.50;1.13;;;27.90;54.70;;;;;;5122090;27;20051;-65
2023/08/25 04:14:22;;;;;;;1.85;1.40;;;27.90;54.60;;;;;;5122992;27;20070;-65
2023/08/25 04:16:47;;;;;;;1.38;1.20;;;27.90;54.60;;;;;;5125778;27;20020;-62
2023/08/25 04:19:16;;;;;;;2.15;1.27;;;27.90;54.70;;;;;;5120691;27;20090;-62
2023/08/25 04:21:42;;;;;;;1.95;1.35;;;27.90;54.70;;;;;;5119578;27;20038;-63
2023/08/25 04:24:08;;;;;;;1.90;1.20;;;27.90;54.60;;;;;;5123663;27;20027;-62
2023/08/25 04:26:34;;;;;;;1.80;1.30;;;27.90;54.70;;;;;;5121632;27;20057;-63
2023/08/25 04:28:59;;;;;;;2.25;1.40;;;27.90;54.70;;;;;;5123234;27;20035;-62
2023/08/25 04:31:25;;;;;;;1.70;1.30;;;27.90;54.70;;;;;;5122079;27;20565;-62
2023/08/25 04:33:50;;;;;;;2.60;1.35;;;27.90;54.60;;;;;;5104049;27;20034;-62
2023/08/25 04:36:16;;;;;;;1.45;1.10;;;27.90;54.70;;;;;;5122442;27;20031;-62
2023/08/25 04:38:42;;;;;;;1.60;1.20;;;27.90;54.70;;;;;;5122933;27;20100;-62
2023/08/25 04:41:07;;;;;;;1.75;1.20;;;27.90;54.70;;;;;;5123703;27;20506;-62
2023/08/25 04:43:33;;;;;;;1.88;1.30;;;27.90;54.70;;;;;;5120983;27;20089;-62
2023/08/25 04:45:58;;;;;;;1.60;1.20;;;27.90;54.70;;;;;;5122240;27;20460;-63
2023/08/25 04:48:24;;;;;;;1.27;1.10;;;27.90;54.70;;;;;;5118952;27;20031;-62
2023/08/25 04:50:50;;;;;;;1.45;1.10;;;27.90;54.70;;;;;;5137954;27;20043;-62
2023/08/25 04:53:15;;;;;;;1.60;1.27;;;27.90;54.70;;;;;;5119427;27;20031;-62
2023/08/25 04:55:41;;;;;;;1.67;1.20;;;27.80;54.60;;;;;;5121213;27;20038;-67
2023/08/25 04:58:07;;;;;;;1.60;1.20;;;27.80;54.60;;;;;;5120185;27;20339;-67
2023/08/25 05:00:32;;;;;;;1.70;1.20;;;27.80;54.60;;;;;;5105756;27;20027;-67
2023/08/25 05:02:58;;;;;;;1.88;1.30;;;27.80;54.60;;;;;;5120417;27;20024;-67
2023/08/25 05:05:24;;;;;;;1.35;1.08;;;27.80;54.60;;;;;;5121336;27;20076;-67
2023/08/25 05:07:51;;;;;;;1.23;0.98;;;27.80;54.60;;;;;;5121519;27;20088;-67
2023/08/25 05:10:16;;;;;;;1.83;1.30;;;27.80;54.60;;;;;;5121761;27;20031;-67
2023/08/25 05:12:42;;;;;;;1.83;1.40;;;27.80;54.70;;;;;;5121670;27;20035;-66
2023/08/25 05:15:08;;;;;;;3.13;1.90;;;27.90;55.00;;;;;;5122166;27;20151;-67
2023/08/25 05:17:34;;;;;;;3.08;1.60;;;27.80;55.20;;;;;;5119190;27;20031;-67
2023/08/25 05:19:59;;;;;;;4.63;1.70;;;27.80;55.30;;;;;;5121012;27;20023;-67
2023/08/25 05:22:25;;;;;;;3.33;1.63;;;27.80;55.30;;;;;;5120582;27;20028;-67
2023/08/25 05:24:52;;;;;;;4.20;1.85;;;27.80;55.40;;;;;;5120894;27;20023;-62
2023/08/25 05:27:18;;;;;;;3.20;1.58;;;27.80;55.50;;;;;;5121197;27;20027;-67
2023/08/25 05:29:44;;;;;;;4.15;2.30;;;27.80;55.60;;;;;;5122450;27;20382;-66
2023/08/25 05:32:10;;;;;;;3.42;2.00;;;27.70;55.50;;;;;;5120991;27;20084;-66
2023/08/25 05:34:36;;;;;;;3.78;1.80;;;27.70;55.60;;;;;;5118448;27;20035;-67
2023/08/25 05:37:02;;;;;;;2.38;1.70;;;27.70;55.80;;;;;;5120691;27;20460;-67
2023/08/25 05:39:27;;;;;;;3.65;2.00;;;27.70;56.10;;;;;;5120761;27;20046;-66
2023/08/25 05:41:53;;;;;;;3.38;1.77;;;27.60;56.00;;;;;;5122647;27;20115;-67
2023/08/25 05:44:19;;;;;;;4.18;1.90;;;27.60;56.20;;;;;;5122422;27;20074;-67
2023/08/25 05:46:44;;;;;;;3.00;1.92;;;27.60;56.40;;;;;;5120475;27;20027;-67
2023/08/25 05:49:10;;;;;;;3.95;1.88;;;27.60;56.50;;;;;;5120452;27;20028;-66
2023/08/25 05:51:36;;;;;;;3.88;1.90;;;27.60;56.70;;;;;;5119453;27;20118;-66
2023/08/25 05:54:01;;;;;;;4.97;2.22;;;27.60;56.90;;;;;;5121324;27;20470;-67
2023/08/25 05:56:27;;;;;;;3.80;2.17;;;27.60;57.20;;;;;;5120122;27;20069;-66
2023/08/25 05:58:54;;;;;;;3.75;2.10;;;27.50;57.30;;;;;;5118430;27;20027;-67
2023/08/25 06:01:20;;;;;;;2.97;1.80;;;27.50;57.90;;;;;;5119810;27;20487;-67
2023/08/25 06:03:46;;;;;;;4.25;1.90;;;27.50;57.50;;;;;;5118019;27;20019;-67
2023/08/25 06:06:12;;;;;;;3.72;2.05;;;27.50;57.60;;;;;;5120223;27;20028;-60
2023/08/25 06:08:37;;;;;;;2.92;2.00;;;27.50;57.60;;;;;;5120411;27;20031;-59
2023/08/25 06:11:03;;;;;;;3.75;2.00;;;27.50;57.70;;;;;;5120907;27;20035;-59
2023/08/25 06:13:29;;;;;;;3.90;2.00;;;27.50;57.70;;;;;;5120122;27;20023;-61
2023/08/25 06:15:55;;;;;;;2.88;1.80;;;27.50;57.60;;;;;;5120711;27;20035;-67
2023/08/25 06:18:20;;;;;;;4.30;1.90;;;27.50;57.60;;;;;;5119787;27;20031;-67
2023/08/25 06:20:50;;;;;;;4.18;1.85;;;27.50;57.50;;;;;;5118973;27;20061;-67
2023/08/25 06:23:15;;;;;;;3.13;1.88;;;27.50;57.50;;;;;;5120011;27;20454;-67
2023/08/25 06:25:41;;;;;;;4.65;1.63;;;27.50;57.50;;;;;;5120226;27;20042;-67
2023/08/25 06:28:06;;;;;;;3.13;1.88;;;27.40;57.50;;;;;;5118908;27;20054;-67
2023/08/25 06:30:35;;;;;;;2.88;1.67;;;27.40;57.60;;;;;;5119146;27;20826;-68
2023/08/25 06:33:02;;;;;;;2.72;1.60;;;27.40;57.60;;;;;;5117465;27;20051;-67
2023/08/25 06:35:27;;;;;;;3.63;1.80;;;27.40;57.70;;;;;;5118613;27;20108;-67
2023/08/25 06:37:53;;;;;;;2.78;1.85;;;27.40;57.80;;;;;;5117792;27;20031;-67
2023/08/25 06:40:19;;;;;;;3.20;1.65;;;27.40;57.80;;;;;;5120522;27;20027;-67
2023/08/25 06:42:44;;;;;;;3.53;1.55;;;27.40;57.90;;;;;;5101019;27;20083;-67
2023/08/25 06:45:11;;;;;;;2.72;1.60;;;27.40;57.90;;;;;;5118503;27;20019;-64
2023/08/25 06:47:38;;;;;;;3.97;1.80;;;27.40;57.90;;;;;;5121463;27;20486;-64
2023/08/25 06:50:08;;;;;;;3.75;1.75;;;27.40;58.00;;;;;;5116743;27;20505;-64
2023/08/25 06:52:36;;;;;;;3.45;1.80;;;27.40;58.10;;;;;;5119991;27;20035;-64
2023/08/25 06:55:01;;;;;;;3.20;1.92;;;27.40;58.10;;;;;;5118124;27;20126;-64
2023/08/25 06:57:28;;;;;;;4.85;1.92;;;27.40;58.10;;;;;;5120320;27;20094;-64
2023/08/25 06:59:53;;;;;;;3.20;1.60;;;27.40;58.10;;;;;;5120156;27;20031;-64
2023/08/25 07:02:19;;;;;;;3.50;1.70;;;27.40;58.00;;;;;;5120963;27;20102;-64
2023/08/25 07:04:45;;;;;;;2.67;1.70;;;27.40;58.00;;;;;;5118315;27;20023;-64
2023/08/25 07:07:10;;;;;;;2.83;1.67;;;27.40;58.10;;;;;;5118894;27;20028;-64
2023/08/25 07:09:36;;;;;;;3.63;1.70;;;27.30;58.00;;;;;;5109419;27;20148;-65
2023/08/25 07:12:04;;;;;;;2.70;1.75;;;27.30;58.10;;;;;;5120231;27;20034;-64
2023/08/25 07:14:31;;;;;;;2.80;1.37;;;27.30;58.10;;;;;;5119427;27;20397;-64
2023/08/25 07:16:57;;;;;;;2.58;1.40;;;27.30;58.10;;;;;;5102420;28;20276;-64
2023/08/25 07:19:23;;;;;;;2.30;1.40;;;27.30;58.10;;;;;;5119099;27;20047;-64
2023/08/25 07:21:49;;;;;;;2.45;1.50;;;27.30;58.10;;;;;;5117396;27;20454;-64
2023/08/25 07:24:14;;;;;;;2.05;1.50;;;27.30;58.00;;;;;;5120116;27;20039;-64
2023/08/25 07:26:40;;;;;;;2.15;1.45;;;27.30;58.00;;;;;;5119412;27;20435;-64
2023/08/25 07:29:06;;;;;;;2.25;1.65;;;27.30;57.90;;;;;;5120404;27;20492;-64
2023/08/25 07:31:31;;;;;;;2.80;1.35;;;27.30;57.90;;;;;;5119108;27;20028;-64
2023/08/25 07:33:57;;;;;;;2.45;1.55;;;27.30;57.80;;;;;;5119368;27;20388;-64
2023/08/25 07:36:24;;;;;;;2.90;1.40;;;27.30;57.80;;;;;;5117236;28;20100;-64
2023/08/25 07:38:50;;;;;;;1.95;1.30;;;27.30;57.80;;;;;;5116828;27;20022;-64
2023/08/25 07:41:20;;;;;;;3.13;1.52;;;27.30;57.70;;;;;;5111440;28;20020;-64
2023/08/25 07:43:45;;;;;;;1.83;1.30;;;27.30;57.70;;;;;;5118224;28;20106;-64
2023/08/25 07:46:11;;;;;;;2.38;1.40;;;27.30;57.70;;;;;;5120028;27;20842;-62
2023/08/25 07:48:37;;;;;;;2.13;1.30;;;27.30;57.60;;;;;;5122122;27;20058;-63
2023/08/25 07:51:02;;;;;;;1.98;1.40;;;27.30;57.60;;;;;;5104119;27;20123;-62
2023/08/25 07:53:28;;;;;;;2.30;1.40;;;27.30;57.60;;;;;;5114006;27;20066;-65
2023/08/25 07:55:53;;;;;;;2.22;1.38;;;27.30;57.50;;;;;;5124731;27;20023;-63
2023/08/25 07:58:21;;;;;;;1.80;1.25;;;27.30;57.50;;;;;;5122760;27;20860;-64
2023/08/25 08:00:46;;;;;;;2.47;1.38;;;27.30;57.50;;;;;;5121802;27;20390;-63
2023/08/25 08:03:13;;;;;;;1.98;1.50;;;27.30;57.50;;;;;;5125507;27;20019;-63
2023/08/25 08:05:38;;;;;;;2.47;1.30;;;27.30;57.40;;;;;;5122779;27;20042;-63
2023/08/25 08:08:04;;;;;;;1.92;1.20;;;27.30;57.40;;;;;;5102728;27;20027;-63
2023/08/25 08:10:30;;;;;;;2.03;1.30;;;27.30;57.40;;;;;;5123307;27;20055;-63
2023/08/25 08:12:56;;;;;;;1.70;1.08;;;27.30;57.40;;;;;;5122577;27;20024;-63
2023/08/25 08:15:23;;;;;;;1.33;1.10;;;27.30;57.30;;;;;;5120908;27;20573;-63
2023/08/25 08:17:49;;;;;;;1.90;1.30;;;27.30;57.30;;;;;;5123693;27;20566;-63
2023/08/25 08:20:16;;;;;;;1.80;1.27;;;27.30;57.30;;;;;;5120791;27;20102;-63
2023/08/25 08:22:42;;;;;;;2.00;1.35;;;27.30;57.30;;;;;;5123401;27;20479;-63
2023/08/25 08:25:10;;;;;;;2.15;1.30;;;27.30;57.30;;;;;;5121530;27;20030;-63
2023/08/25 08:27:37;;;;;;;2.03;1.30;;;27.30;57.80;;;;;;5122974;27;20110;-63
2023/08/25 08:30:03;;;;;;;1.58;1.20;;;27.30;57.20;;;;;;5123204;27;20035;-63
2023/08/25 08:32:29;;;;;;;2.08;1.20;;;27.30;57.20;;;;;;5121179;27;20072;-64
2023/08/25 08:34:56;;;;;;;2.05;1.23;;;27.30;57.20;;;;;;5119847;27;20023;-63
2023/08/25 08:37:22;;;;;;;1.58;1.10;;;27.30;57.20;;;;;;5121046;27;20063;-63
2023/08/25 08:39:47;;;;;;;1.70;1.17;;;27.30;57.20;;;;;;5122250;27;20034;-63
2023/08/25 08:42:14;;;;;;;1.95;1.27;;;27.30;57.20;;;;;;5119840;27;20475;-63
2023/08/25 08:44:45;;;;;;;2.03;1.20;;;27.30;57.20;;;;;;5121994;27;20045;-63
2023/08/25 08:47:11;;;;;;;2.13;1.30;;;27.30;57.10;;;;;;5122493;27;20031;-63
2023/08/25 08:49:39;;;;;;;1.70;1.20;;;27.30;57.10;;;;;;5136714;27;20035;-63
2023/08/25 08:52:06;;;;;;;2.15;1.10;;;27.30;57.10;;;;;;5123257;27;20501;-63
2023/08/25 08:54:35;;;;;;;1.90;1.05;;;27.30;57.10;;;;;;5120741;27;20031;-63
2023/08/25 08:57:01;;;;;;;2.00;1.17;;;27.30;57.60;;;;;;5119530;27;20019;-64
2023/08/25 08:59:26;;;;;;;1.83;1.30;;;27.30;57.10;;;;;;5119089;27;20023;-63
2023/08/25 09:01:53;;;;;;;1.60;1.13;;;27.30;57.10;;;;;;5122424;27;20520;-64
2023/08/25 09:04:22;;;;;;;2.40;1.20;;;27.30;57.00;;;;;;5121372;27;20073;-63
2023/08/25 09:06:52;;;;;;;2.20;1.30;;;27.30;57.00;;;;;;5119316;27;20080;-61
2023/08/25 09:09:21;;;;;;;;;;;27.30;57.00;;;;;;5105329;27;20083;-60
2023/08/25 09:11:47;;;;;;;1.65;1.10;;;27.30;57.00;;;;;;5120236;27;19991;-60
2023/08/25 09:14:23;;;;;;;1.52;1.10;;;27.30;56.90;;;;;;5122825;27;20059;-61
2023/08/25 09:16:50;;;;;;;1.63;1.23;;;27.30;57.00;;;;;;5121911;27;20029;-60
2023/08/25 09:19:16;;;;;;;1.40;1.10;;;27.30;56.90;;;;;;5120449;27;20440;-62
2023/08/25 09:21:48;;;;;;;2.03;1.10;;;27.30;57.00;;;;;;5121074;27;20025;-60
2023/08/25 09:24:21;;;;;;;1.63;1.13;;;27.30;56.90;;;;;;5121336;27;20106;-61
2023/08/25 09:26:48;;;;;;;2.03;1.20;;;27.30;56.90;;;;;;5121018;27;20397;-60
2023/08/25 09:29:14;;;;;;;2.70;1.30;;;27.30;56.90;;;;;;5121483;27;20050;-59
2023/08/25 09:31:41;;;;;;;1.55;1.30;;;27.30;56.90;;;;;;5120211;27;20471;-60
2023/08/25 09:34:08;;;;;;;2.08;1.27;;;27.30;56.90;;;;;;5121367;27;20038;-60
2023/08/25 09:36:48;;;;;;;1.60;1.20;;;27.30;56.90;;;;;;5117361;27;20479;-60
2023/08/25 09:39:14;;;;;;;1.52;1.10;;;27.30;56.80;;;;;;5122182;27;20490;-60
2023/08/25 09:41:40;;;;;;;1.95;1.10;;;27.30;56.80;;;;;;5121660;27;20133;-60
2023/08/25 09:44:05;;;;;;;2.20;1.20;;;27.30;56.80;;;;;;5120757;27;20019;-60
2023/08/25 09:46:32;;;;;;;1.10;1.00;;;27.30;56.80;;;;;;5122583;27;20037;-62
2023/08/25 09:49:02;;;;;;;1.60;1.20;;;27.30;56.80;;;;;;5118853;27;20023;-60
2023/08/25 09:51:39;;;;;;;1.75;1.10;;;27.30;56.80;;;;;;5117567;27;20502;-60
2023/08/25 09:54:12;;;;;;;2.17;1.20;;;27.30;56.80;;;;;;5121639;27;20023;-60
2023/08/25 09:56:39;;;;;;;1.42;1.10;;;27.30;56.80;;;;;;5118232;27;20015;-60
2023/08/25 09:59:06;;;;;;;1.95;1.35;;;27.30;56.70;;;;;;5120459;27;20044;-60
2023/08/25 10:01:34;;;;;;;1.80;1.10;;;27.30;56.80;;;;;;5120040;27;21022;-60
2023/08/25 10:04:00;;;;;;;1.38;1.00;;;27.30;56.70;;;;;;5120930;27;20043;-60
2023/08/25 10:06:28;;;;;;;1.77;1.20;;;27.30;56.70;;;;;;5118878;27;20103;-63
2023/08/25 10:08:55;;;;;;;3.40;1.80;;;27.30;56.70;;;;;;5117985;27;20412;-63
2023/08/25 10:11:21;;;;;;;2.00;1.20;;;27.30;56.70;;;;;;5120569;27;20071;-63
2023/08/25 10:13:52;;;;;;;2.05;1.30;;;27.30;56.70;;;;;;5120687;27;20462;-63
2023/08/25 10:16:19;;;;;;;1.58;1.00;;;27.30;56.70;;;;;;5119191;27;20501;-63
2023/08/25 10:18:45;;;;;;;1.95;1.10;;;27.30;56.70;;;;;;5119799;27;20482;-63
2023/08/25 10:21:13;;;;;;;1.52;1.00;;;27.30;56.70;;;;;;5120089;27;20058;-63
2023/08/25 10:23:40;;;;;;;1.15;0.98;;;27.30;56.70;;;;;;5119556;27;20374;-63
2023/08/25 10:26:06;;;;;;;1.92;1.20;;;27.30;56.70;;;;;;5120064;27;20034;-63
2023/08/25 10:28:34;;;;;;;1.45;1.10;;;27.30;56.70;;;;;;5117674;27;20020;-63
2023/08/25 10:31:00;;;;;;;2.45;1.10;;;27.30;57.20;;;;;;5099790;27;20401;-64
2023/08/25 10:33:25;;;;;;;1.70;1.13;;;27.30;56.70;;;;;;5117388;27;20080;-63
2023/08/25 10:35:54;;;;;;;2.13;1.17;;;27.30;56.60;;;;;;5118210;27;20036;-63
2023/08/25 10:38:19;;;;;;;1.55;1.20;;;27.30;56.60;;;;;;5120081;27;20016;-63
2023/08/25 10:41:09;;;;;;;1.88;1.17;;;27.30;56.60;;;;;;5118361;27;20082;-63
2023/08/25 10:43:37;;;;;;;2.10;1.30;;;27.30;56.60;;;;;;5118580;27;20020;-64
2023/08/25 10:46:09;;;;;;;1.27;0.98;;;27.30;57.10;;;;;;5119561;27;20031;-63
2023/08/25 10:48:37;;;;;;;1.55;1.20;;;27.30;56.60;;;;;;5120815;27;20106;-64
2023/08/25 10:51:10;;;;;;;1.83;1.23;;;27.40;56.60;;;;;;5117241;27;20058;-63
2023/08/25 10:53:38;;;;;;;1.52;1.20;;;27.40;56.60;;;;;;5119909;27;20474;-64
2023/08/25 10:56:22;;;;;;;1.30;1.08;;;27.40;56.50;;;;;;5121492;27;20076;-63
2023/08/25 10:59:06;;;;;;;1.75;1.13;;;27.40;56.50;;;;;;5120214;27;20403;-63
2023/08/25 11:01:37;;;;;;;2.17;1.10;;;27.40;56.50;;;;;;5120750;27;20019;-63
2023/08/25 11:04:13;;;;;;;1.50;1.08;;;27.40;56.50;;;;;;5120274;27;20034;-63
2023/08/25 11:06:46;;;;;;;1.30;1.00;;;27.40;56.50;;;;;;5118781;27;20030;-63
2023/08/25 11:09:17;;;;;;;1.95;1.10;;;27.40;56.50;;;;;;5118287;27;20626;-63
2023/08/25 11:11:45;;;;;;;2.17;1.40;;;27.30;56.40;;;;;;5119384;27;20025;-63
2023/08/25 11:14:11;;;;;;;2.53;1.30;;;27.40;56.50;;;;;;5119733;27;20514;-63
2023/08/25 11:16:40;;;;;;;1.40;1.10;;;27.40;56.50;;;;;;5119455;27;20107;-65
2023/08/25 11:19:09;;;;;;;;;;;27.40;56.50;;;;;;5118686;27;20513;-65
2023/08/25 11:21:35;;;;;;;;;;;27.40;56.50;;;;;;5118353;27;19903;-64
2023/08/25 11:24:01;;;;;;;2.30;1.30;;;27.40;56.50;;;;;;5118964;27;20346;-64
2023/08/25 11:26:26;;;;;;;2.10;1.30;;;27.40;56.50;;;;;;5102333;27;20458;-64
2023/08/25 11:28:53;;;;;;;3.40;1.30;;;27.40;56.40;;;;;;5118526;27;20024;-65
2023/08/25 11:31:23;;;;;;;2.22;1.35;;;27.40;56.40;;;;;;5118762;27;20019;-64
2023/08/25 11:33:51;;;;;;;1.50;1.13;;;27.40;56.40;;;;;;5117783;27;20039;-64
2023/08/25 11:36:17;;;;;;;2.30;1.25;;;27.40;56.40;;;;;;5115793;27;20077;-64
2023/08/25 11:38:48;;;;;;;2.45;1.30;;;27.40;56.50;;;;;;5118778;27;20094;-64
2023/08/25 11:41:14;;;;;;;1.88;1.20;;;27.40;56.50;;;;;;5100895;28;20107;-64
2023/08/25 11:43:40;;;;;;;1.30;1.17;;;27.40;56.50;;;;;;5119395;28;20117;-64
2023/08/25 11:46:06;;;;;;;1.45;1.10;;;27.40;56.50;;;;;;5118873;28;20024;-64
2023/08/25 11:48:35;;;;;;;1.10;1.00;;;27.40;56.50;;;;;;5120128;28;20031;-64
2023/08/25 11:51:01;;;;;;;1.42;1.05;;;27.40;56.60;;;;;;5119101;28;20055;-64
2023/08/25 11:53:26;;;;;;;1.40;1.10;;;27.40;56.50;;;;;;5118159;28;20036;-64
2023/08/25 11:56:03;;;;;;;1.98;1.25;;;27.40;56.60;;;;;;5120049;28;20028;-65
2023/08/25 11:58:33;;;;;;;1.45;1.08;;;27.40;56.70;;;;;;5118231;28;20030;-64
2023/08/25 12:01:09;;;;;;;1.92;1.20;;;27.40;56.80;;;;;;5118383;28;20043;-64
2023/08/25 12:03:36;;;;;;;1.40;1.05;;;27.40;56.70;;;;;;5117230;28;20019;-65
2023/08/25 12:06:06;;;;;;;2.65;1.10;;;27.40;57.10;;;;;;5119573;28;20458;-64
2023/08/25 12:08:33;;;;;;;1.83;1.30;;;27.40;57.10;;;;;;5118649;28;20028;-65
2023/08/25 12:11:00;;;;;;;1.80;1.10;;;27.40;57.10;;;;;;5116928;28;20336;-64
2023/08/25 12:13:29;;;;;;;1.55;1.10;;;27.40;57.10;;;;;;5117952;28;20027;-64
2023/08/25 12:15:55;;;;;;;;;;;27.40;57.20;;;;;;5117504;28;20039;-64
2023/08/25 12:18:22;;;;;;;2.22;1.20;;;27.40;57.30;;;;;;5116624;28;19907;-64
2023/08/25 12:20:49;;;;;;;1.50;1.23;;;27.40;57.30;;;;;;5117716;28;20019;-64
2023/08/25 12:23:16;;;;;;;2.33;1.20;;;27.40;57.20;;;;;;5100682;28;20023;-64
2023/08/25 12:25:42;;;;;;;1.58;1.20;;;27.40;57.20;;;;;;5117531;28;20028;-66
2023/08/25 12:28:09;;;;;;;1.92;1.15;;;27.50;57.50;;;;;;5118635;28;20481;-66
2023/08/25 12:30:34;;;;;;;1.50;1.10;;;27.50;57.40;;;;;;5115906;28;20094;-66
2023/08/25 12:33:00;;;;;;;1.30;1.08;;;27.50;57.30;;;;;;5122356;27;20185;-66
2023/08/25 12:35:26;;;;;;;1.58;1.05;;;27.50;57.30;;;;;;5121428;27;20404;-63
2023/08/25 12:37:52;;;;;;;1.52;1.25;;;27.50;57.30;;;;;;5121120;27;20399;-62
2023/08/25 12:40:21;;;;;;;1.80;1.17;;;27.50;57.20;;;;;;5120108;27;20418;-62
2023/08/25 12:42:48;;;;;;;;;;;27.50;57.20;;;;;;5121210;27;20015;-61
2023/08/25 12:45:14;;;;;;;2.05;1.20;;;27.50;57.20;;;;;;5121886;27;20394;-62
2023/08/25 12:47:40;;;;;;;1.67;1.10;;;27.50;57.10;;;;;;5123094;27;20035;-61